sensor_id;sensor_type;location;lat;lon;timestamp;P1;durP1;ratioP1;P2;durP2;ratioP2
63664;SDS011;49820;33.966;73.390;2022-12-18T00:00:12;12.02;;;7.82;;
63664;SDS011;49820;33.966;73.390;2022-12-18T00:02:42;13.10;;;7.80;;
63664;SDS011;49820;33.966;73.390;2022-12-18T00:05:12;14.13;;;7.80;;
63664;SDS011;49820;33.966;73.390;2022-12-18T00:07:41;12.55;;;7.63;;
63664;SDS011;49820;33.966;73.390;2022-12-18T00:10:10;14.40;;;7.90;;
63664;SDS011;49820;33.966;73.390;2022-12-18T00:12:44;13.40;;;7.80;;
63664;SDS011;49820;33.966;73.390;2022-12-18T00:15:13;15.20;;;8.33;;
63664;SDS011;49820;33.966;73.390;2022-12-18T00:17:42;13.60;;;7.97;;
63664;SDS011;49820;33.966;73.390;2022-12-18T00:20:11;14.77;;;8.30;;
63664;SDS011;49820;33.966;73.390;2022-12-18T00:22:40;14.25;;;8.32;;
63664;SDS011;49820;33.966;73.390;2022-12-18T00:25:09;15.45;;;8.63;;
63664;SDS011;49820;33.966;73.390;2022-12-18T00:27:38;14.17;;;9.00;;
63664;SDS011;49820;33.966;73.390;2022-12-18T00:33:33;15.13;;;9.30;;
63664;SDS011;49820;33.966;73.390;2022-12-18T00:36:07;12.98;;;8.27;;
63664;SDS011;49820;33.966;73.390;2022-12-18T00:38:39;16.55;;;9.00;;
63664;SDS011;49820;33.966;73.390;2022-12-18T00:41:09;15.13;;;8.77;;
63664;SDS011;49820;33.966;73.390;2022-12-18T00:43:39;15.00;;;8.93;;
63664;SDS011;49820;33.966;73.390;2022-12-18T00:46:08;15.23;;;9.32;;
63664;SDS011;49820;33.966;73.390;2022-12-18T00:48:38;12.75;;;8.70;;
63664;SDS011;49820;33.966;73.390;2022-12-18T00:51:07;12.13;;;7.75;;
63664;SDS011;49820;33.966;73.390;2022-12-18T00:53:36;14.75;;;8.40;;
63664;SDS011;49820;33.966;73.390;2022-12-18T00:56:06;15.55;;;9.27;;
63664;SDS011;49820;33.966;73.390;2022-12-18T00:58:35;13.65;;;8.85;;
63664;SDS011;49820;33.966;73.390;2022-12-18T01:01:04;14.10;;;8.45;;
63664;SDS011;49820;33.966;73.390;2022-12-18T01:03:34;15.07;;;8.43;;
63664;SDS011;49820;33.966;73.390;2022-12-18T01:06:07;14.25;;;8.38;;
63664;SDS011;49820;33.966;73.390;2022-12-18T01:08:37;13.52;;;8.38;;
63664;SDS011;49820;33.966;73.390;2022-12-18T01:11:10;15.90;;;8.80;;
63664;SDS011;49820;33.966;73.390;2022-12-18T01:13:41;13.80;;;7.97;;
63664;SDS011;49820;33.966;73.390;2022-12-18T01:16:14;14.65;;;8.73;;
63664;SDS011;49820;33.966;73.390;2022-12-18T01:18:44;17.70;;;9.50;;
63664;SDS011;49820;33.966;73.390;2022-12-18T01:21:14;13.65;;;8.90;;
63664;SDS011;49820;33.966;73.390;2022-12-18T01:23:44;14.27;;;8.90;;
63664;SDS011;49820;33.966;73.390;2022-12-18T01:26:14;15.95;;;9.13;;
63664;SDS011;49820;33.966;73.390;2022-12-18T01:28:44;14.50;;;8.90;;
63664;SDS011;49820;33.966;73.390;2022-12-18T01:31:17;13.25;;;8.38;;
63664;SDS011;49820;33.966;73.390;2022-12-18T01:33:49;14.18;;;8.30;;
63664;SDS011;49820;33.966;73.390;2022-12-18T01:36:23;13.50;;;8.68;;
63664;SDS011;49820;33.966;73.390;2022-12-18T01:38:54;15.60;;;8.60;;
63664;SDS011;49820;33.966;73.390;2022-12-18T01:41:26;14.52;;;8.48;;
63664;SDS011;49820;33.966;73.390;2022-12-18T01:47:32;15.00;;;8.15;;
63664;SDS011;49820;33.966;73.390;2022-12-18T01:50:13;14.60;;;8.10;;
63664;SDS011;49820;33.966;73.390;2022-12-18T01:52:47;14.40;;;7.65;;
63664;SDS011;49820;33.966;73.390;2022-12-18T01:55:44;13.88;;;7.65;;
63664;SDS011;49820;33.966;73.390;2022-12-18T01:58:22;13.90;;;8.18;;
63664;SDS011;49820;33.966;73.390;2022-12-18T02:00:57;13.35;;;7.65;;
63664;SDS011;49820;33.966;73.390;2022-12-18T02:03:26;14.55;;;7.80;;
63664;SDS011;49820;33.966;73.390;2022-12-18T02:06:00;14.57;;;8.15;;
63664;SDS011;49820;33.966;73.390;2022-12-18T02:13:44;12.93;;;7.43;;
63664;SDS011;49820;33.966;73.390;2022-12-18T02:16:20;16.20;;;8.53;;
63664;SDS011;49820;33.966;73.390;2022-12-18T02:19:06;14.47;;;8.53;;
63664;SDS011;49820;33.966;73.390;2022-12-18T02:22:19;15.57;;;9.00;;
63664;SDS011;49820;33.966;73.390;2022-12-18T02:27:49;15.73;;;8.00;;
63664;SDS011;49820;33.966;73.390;2022-12-18T02:30:21;15.38;;;8.23;;
63664;SDS011;49820;33.966;73.390;2022-12-18T02:32:50;12.30;;;7.80;;
63664;SDS011;49820;33.966;73.390;2022-12-18T02:35:24;13.60;;;8.73;;
63664;SDS011;49820;33.966;73.390;2022-12-18T02:37:58;13.27;;;7.97;;
63664;SDS011;49820;33.966;73.390;2022-12-18T02:40:32;15.52;;;8.07;;
63664;SDS011;49820;33.966;73.390;2022-12-18T02:43:11;19.88;;;8.90;;
63664;SDS011;49820;33.966;73.390;2022-12-18T02:48:28;15.00;;;8.73;;
63664;SDS011;49820;33.966;73.390;2022-12-18T02:51:04;15.80;;;9.13;;
63664;SDS011;49820;33.966;73.390;2022-12-18T02:56:49;12.32;;;7.45;;
63664;SDS011;49820;33.966;73.390;2022-12-18T02:59:29;12.63;;;7.32;;
63664;SDS011;49820;33.966;73.390;2022-12-18T03:02:24;13.02;;;8.05;;
63664;SDS011;49820;33.966;73.390;2022-12-18T03:05:07;13.55;;;7.68;;
63664;SDS011;49820;33.966;73.390;2022-12-18T03:07:58;13.10;;;7.95;;
63664;SDS011;49820;33.966;73.390;2022-12-18T03:10:37;11.32;;;7.57;;
63664;SDS011;49820;33.966;73.390;2022-12-18T03:13:23;13.00;;;8.07;;
63664;SDS011;49820;33.966;73.390;2022-12-18T03:16:01;11.50;;;7.32;;
63664;SDS011;49820;33.966;73.390;2022-12-18T03:21:17;13.13;;;8.40;;
63664;SDS011;49820;33.966;73.390;2022-12-18T03:23:51;12.43;;;8.15;;
63664;SDS011;49820;33.966;73.390;2022-12-18T03:26:25;16.15;;;9.10;;
63664;SDS011;49820;33.966;73.390;2022-12-18T03:29:00;15.73;;;9.00;;
63664;SDS011;49820;33.966;73.390;2022-12-18T03:31:36;14.77;;;8.37;;
63664;SDS011;49820;33.966;73.390;2022-12-18T03:34:09;15.10;;;8.87;;
63664;SDS011;49820;33.966;73.390;2022-12-18T03:36:46;15.63;;;8.90;;
63664;SDS011;49820;33.966;73.390;2022-12-18T03:39:15;14.27;;;8.60;;
63664;SDS011;49820;33.966;73.390;2022-12-18T03:41:57;13.60;;;8.63;;
63664;SDS011;49820;33.966;73.390;2022-12-18T03:52:51;12.68;;;8.18;;
63664;SDS011;49820;33.966;73.390;2022-12-18T03:55:29;13.43;;;8.90;;
63664;SDS011;49820;33.966;73.390;2022-12-18T03:58:04;15.15;;;9.15;;
63664;SDS011;49820;33.966;73.390;2022-12-18T04:00:47;14.00;;;8.90;;
63664;SDS011;49820;33.966;73.390;2022-12-18T04:03:19;15.05;;;9.88;;
63664;SDS011;49820;33.966;73.390;2022-12-18T04:05:53;14.45;;;8.77;;
63664;SDS011;49820;33.966;73.390;2022-12-18T04:08:23;16.20;;;9.40;;
63664;SDS011;49820;33.966;73.390;2022-12-18T04:11:01;15.07;;;9.40;;
63664;SDS011;49820;33.966;73.390;2022-12-18T04:13:33;14.80;;;9.57;;
63664;SDS011;49820;33.966;73.390;2022-12-18T04:16:09;14.27;;;9.25;;
63664;SDS011;49820;33.966;73.390;2022-12-18T04:18:41;15.00;;;9.98;;
63664;SDS011;49820;33.966;73.390;2022-12-18T04:21:12;17.90;;;10.40;;
63664;SDS011;49820;33.966;73.390;2022-12-18T04:23:42;15.73;;;10.07;;
63664;SDS011;49820;33.966;73.390;2022-12-18T04:26:11;16.88;;;9.85;;
63664;SDS011;49820;33.966;73.390;2022-12-18T04:29:00;14.68;;;9.10;;
63664;SDS011;49820;33.966;73.390;2022-12-18T04:31:30;14.75;;;9.38;;
63664;SDS011;49820;33.966;73.390;2022-12-18T04:33:58;14.50;;;8.90;;
63664;SDS011;49820;33.966;73.390;2022-12-18T04:36:28;16.05;;;9.50;;
63664;SDS011;49820;33.966;73.390;2022-12-18T04:38:57;12.68;;;8.32;;
63664;SDS011;49820;33.966;73.390;2022-12-18T04:41:27;14.20;;;9.20;;
63664;SDS011;49820;33.966;73.390;2022-12-18T04:43:56;11.90;;;7.38;;
63664;SDS011;49820;33.966;73.390;2022-12-18T04:46:26;14.25;;;8.70;;
63664;SDS011;49820;33.966;73.390;2022-12-18T04:48:54;13.10;;;8.10;;
63664;SDS011;49820;33.966;73.390;2022-12-18T04:51:23;14.35;;;8.80;;
63664;SDS011;49820;33.966;73.390;2022-12-18T04:53:53;11.65;;;8.05;;
63664;SDS011;49820;33.966;73.390;2022-12-18T04:56:22;13.32;;;7.63;;
63664;SDS011;49820;33.966;73.390;2022-12-18T04:58:51;12.27;;;7.07;;
63664;SDS011;49820;33.966;73.390;2022-12-18T05:01:20;11.73;;;7.22;;
63664;SDS011;49820;33.966;73.390;2022-12-18T05:03:50;13.02;;;7.18;;
63664;SDS011;49820;33.966;73.390;2022-12-18T05:06:19;12.25;;;7.05;;
63664;SDS011;49820;33.966;73.390;2022-12-18T05:08:48;12.18;;;6.90;;
63664;SDS011;49820;33.966;73.390;2022-12-18T05:11:17;12.32;;;7.50;;
63664;SDS011;49820;33.966;73.390;2022-12-18T05:13:46;12.45;;;7.00;;
63664;SDS011;49820;33.966;73.390;2022-12-18T05:16:15;11.48;;;7.72;;
63664;SDS011;49820;33.966;73.390;2022-12-18T05:18:44;11.25;;;7.00;;
63664;SDS011;49820;33.966;73.390;2022-12-18T05:21:12;11.27;;;7.70;;
63664;SDS011;49820;33.966;73.390;2022-12-18T05:23:41;10.23;;;7.10;;
63664;SDS011;49820;33.966;73.390;2022-12-18T05:26:15;12.70;;;7.03;;
63664;SDS011;49820;33.966;73.390;2022-12-18T05:28:46;11.15;;;7.07;;
63664;SDS011;49820;33.966;73.390;2022-12-18T05:31:14;10.93;;;7.15;;
63664;SDS011;49820;33.966;73.390;2022-12-18T05:33:43;9.52;;;6.60;;
63664;SDS011;49820;33.966;73.390;2022-12-18T05:36:12;10.48;;;7.13;;
63664;SDS011;49820;33.966;73.390;2022-12-18T05:38:42;11.32;;;7.93;;
63664;SDS011;49820;33.966;73.390;2022-12-18T05:41:11;11.37;;;7.27;;
63664;SDS011;49820;33.966;73.390;2022-12-18T05:43:40;10.90;;;7.28;;
63664;SDS011;49820;33.966;73.390;2022-12-18T05:46:12;11.27;;;7.25;;
63664;SDS011;49820;33.966;73.390;2022-12-18T05:48:43;10.50;;;6.97;;
63664;SDS011;49820;33.966;73.390;2022-12-18T05:51:13;11.68;;;7.65;;
63664;SDS011;49820;33.966;73.390;2022-12-18T05:53:44;12.23;;;7.60;;
63664;SDS011;49820;33.966;73.390;2022-12-18T05:56:14;10.63;;;7.17;;
63664;SDS011;49820;33.966;73.390;2022-12-18T05:58:52;11.20;;;7.47;;
63664;SDS011;49820;33.966;73.390;2022-12-18T06:04:12;12.20;;;8.23;;
63664;SDS011;49820;33.966;73.390;2022-12-18T06:06:41;13.15;;;8.57;;
63664;SDS011;49820;33.966;73.390;2022-12-18T06:09:10;13.10;;;8.23;;
63664;SDS011;49820;33.966;73.390;2022-12-18T06:11:39;11.50;;;8.63;;
63664;SDS011;49820;33.966;73.390;2022-12-18T06:14:09;15.20;;;8.90;;
63664;SDS011;49820;33.966;73.390;2022-12-18T06:16:38;13.45;;;8.85;;
63664;SDS011;49820;33.966;73.390;2022-12-18T06:19:07;13.90;;;8.85;;
63664;SDS011;49820;33.966;73.390;2022-12-18T06:21:36;13.07;;;8.70;;
63664;SDS011;49820;33.966;73.390;2022-12-18T06:24:05;13.75;;;9.15;;
63664;SDS011;49820;33.966;73.390;2022-12-18T06:26:36;15.35;;;10.20;;
63664;SDS011;49820;33.966;73.390;2022-12-18T06:29:06;13.27;;;9.48;;
63664;SDS011;49820;33.966;73.390;2022-12-18T06:31:35;15.32;;;10.25;;
63664;SDS011;49820;33.966;73.390;2022-12-18T06:34:05;15.82;;;9.98;;
63664;SDS011;49820;33.966;73.390;2022-12-18T06:36:34;20.50;;;13.25;;
63664;SDS011;49820;33.966;73.390;2022-12-18T06:39:04;17.83;;;13.48;;
63664;SDS011;49820;33.966;73.390;2022-12-18T06:41:33;18.83;;;13.65;;
63664;SDS011;49820;33.966;73.390;2022-12-18T06:44:03;20.70;;;14.13;;
63664;SDS011;49820;33.966;73.390;2022-12-18T06:46:34;19.48;;;13.50;;
63664;SDS011;49820;33.966;73.390;2022-12-18T06:49:03;17.55;;;11.93;;
63664;SDS011;49820;33.966;73.390;2022-12-18T06:51:32;20.00;;;14.23;;
63664;SDS011;49820;33.966;73.390;2022-12-18T06:54:01;20.45;;;13.93;;
63664;SDS011;49820;33.966;73.390;2022-12-18T06:56:30;20.67;;;13.83;;
63664;SDS011;49820;33.966;73.390;2022-12-18T06:58:59;21.63;;;14.93;;
63664;SDS011;49820;33.966;73.390;2022-12-18T07:01:28;18.85;;;14.00;;
63664;SDS011;49820;33.966;73.390;2022-12-18T07:03:58;21.00;;;14.73;;
63664;SDS011;49820;33.966;73.390;2022-12-18T07:06:27;18.08;;;13.95;;
63664;SDS011;49820;33.966;73.390;2022-12-18T07:08:56;20.83;;;15.00;;
63664;SDS011;49820;33.966;73.390;2022-12-18T07:11:25;21.75;;;15.30;;
63664;SDS011;49820;33.966;73.390;2022-12-18T07:13:54;22.30;;;14.48;;
63664;SDS011;49820;33.966;73.390;2022-12-18T07:16:23;20.05;;;13.95;;
63664;SDS011;49820;33.966;73.390;2022-12-18T07:18:53;21.85;;;15.10;;
63664;SDS011;49820;33.966;73.390;2022-12-18T07:21:24;18.85;;;13.88;;
63664;SDS011;49820;33.966;73.390;2022-12-18T07:23:53;18.92;;;13.25;;
63664;SDS011;49820;33.966;73.390;2022-12-18T07:26:22;17.48;;;13.65;;
63664;SDS011;49820;33.966;73.390;2022-12-18T07:28:54;17.27;;;13.47;;
63664;SDS011;49820;33.966;73.390;2022-12-18T07:31:25;16.55;;;13.60;;
63664;SDS011;49820;33.966;73.390;2022-12-18T07:33:55;19.42;;;13.20;;
63664;SDS011;49820;33.966;73.390;2022-12-18T07:36:24;19.20;;;13.48;;
63664;SDS011;49820;33.966;73.390;2022-12-18T07:38:53;17.83;;;13.40;;
63664;SDS011;49820;33.966;73.390;2022-12-18T07:41:22;17.63;;;13.52;;
63664;SDS011;49820;33.966;73.390;2022-12-18T07:43:51;19.73;;;13.20;;
63664;SDS011;49820;33.966;73.390;2022-12-18T07:46:20;19.13;;;13.50;;
63664;SDS011;49820;33.966;73.390;2022-12-18T07:48:49;18.25;;;13.43;;
63664;SDS011;49820;33.966;73.390;2022-12-18T07:51:18;18.30;;;13.10;;
63664;SDS011;49820;33.966;73.390;2022-12-18T07:53:47;18.50;;;13.32;;
63664;SDS011;49820;33.966;73.390;2022-12-18T07:56:19;19.58;;;14.25;;
63664;SDS011;49820;33.966;73.390;2022-12-18T07:58:55;19.93;;;13.87;;
63664;SDS011;49820;33.966;73.390;2022-12-18T08:01:25;22.10;;;14.48;;
63664;SDS011;49820;33.966;73.390;2022-12-18T08:03:55;18.37;;;13.37;;
63664;SDS011;49820;33.966;73.390;2022-12-18T08:06:26;17.65;;;12.77;;
63664;SDS011;49820;33.966;73.390;2022-12-18T08:08:55;20.55;;;15.52;;
63664;SDS011;49820;33.966;73.390;2022-12-18T08:11:25;19.52;;;14.05;;
63664;SDS011;49820;33.966;73.390;2022-12-18T08:13:55;21.48;;;14.80;;
63664;SDS011;49820;33.966;73.390;2022-12-18T08:16:25;20.65;;;14.73;;
63664;SDS011;49820;33.966;73.390;2022-12-18T08:18:55;18.73;;;14.50;;
63664;SDS011;49820;33.966;73.390;2022-12-18T08:21:25;20.02;;;14.63;;
63664;SDS011;49820;33.966;73.390;2022-12-18T08:23:57;18.83;;;13.85;;
63664;SDS011;49820;33.966;73.390;2022-12-18T08:26:28;20.30;;;13.85;;
63664;SDS011;49820;33.966;73.390;2022-12-18T08:28:59;18.92;;;13.98;;
63664;SDS011;49820;33.966;73.390;2022-12-18T08:31:30;17.80;;;13.90;;
63664;SDS011;49820;33.966;73.390;2022-12-18T08:33:59;21.33;;;14.88;;
63664;SDS011;49820;33.966;73.390;2022-12-18T08:36:28;18.38;;;14.15;;
63664;SDS011;49820;33.966;73.390;2022-12-18T08:38:57;18.92;;;14.40;;
63664;SDS011;49820;33.966;73.390;2022-12-18T08:41:26;21.43;;;14.70;;
63664;SDS011;49820;33.966;73.390;2022-12-18T08:43:56;22.20;;;15.17;;
63664;SDS011;49820;33.966;73.390;2022-12-18T08:46:43;23.63;;;15.25;;
63664;SDS011;49820;33.966;73.390;2022-12-18T08:49:12;20.50;;;14.43;;
63664;SDS011;49820;33.966;73.390;2022-12-18T08:51:41;24.23;;;16.08;;
63664;SDS011;49820;33.966;73.390;2022-12-18T08:54:11;22.67;;;15.35;;
63664;SDS011;49820;33.966;73.390;2022-12-18T08:56:41;24.13;;;15.77;;
63664;SDS011;49820;33.966;73.390;2022-12-18T08:59:10;24.58;;;19.88;;
63664;SDS011;49820;33.966;73.390;2022-12-18T09:01:46;24.60;;;16.50;;
63664;SDS011;49820;33.966;73.390;2022-12-18T09:04:16;21.23;;;15.93;;
63664;SDS011;49820;33.966;73.390;2022-12-18T09:06:45;22.23;;;16.05;;
63664;SDS011;49820;33.966;73.390;2022-12-18T09:09:14;22.40;;;15.30;;
63664;SDS011;49820;33.966;73.390;2022-12-18T09:11:43;22.67;;;15.75;;
63664;SDS011;49820;33.966;73.390;2022-12-18T09:14:13;20.27;;;14.97;;
63664;SDS011;49820;33.966;73.390;2022-12-18T09:16:42;23.67;;;16.00;;
63664;SDS011;49820;33.966;73.390;2022-12-18T09:19:12;20.63;;;14.50;;
63664;SDS011;49820;33.966;73.390;2022-12-18T09:21:41;20.88;;;13.80;;
63664;SDS011;49820;33.966;73.390;2022-12-18T09:24:15;23.10;;;15.13;;
63664;SDS011;49820;33.966;73.390;2022-12-18T09:26:52;20.98;;;14.88;;
63664;SDS011;49820;33.966;73.390;2022-12-18T09:29:24;20.40;;;14.65;;
63664;SDS011;49820;33.966;73.390;2022-12-18T09:31:53;21.92;;;13.82;;
63664;SDS011;49820;33.966;73.390;2022-12-18T09:34:24;18.48;;;13.15;;
63664;SDS011;49820;33.966;73.390;2022-12-18T09:36:54;19.98;;;13.45;;
63664;SDS011;49820;33.966;73.390;2022-12-18T09:39:23;19.65;;;13.52;;
63664;SDS011;49820;33.966;73.390;2022-12-18T09:41:53;18.88;;;13.25;;
63664;SDS011;49820;33.966;73.390;2022-12-18T09:47:45;18.58;;;13.07;;
63664;SDS011;49820;33.966;73.390;2022-12-18T09:50:04;19.20;;;13.10;;
63664;SDS011;49820;33.966;73.390;2022-12-18T09:52:46;20.20;;;14.07;;
63664;SDS011;49820;33.966;73.390;2022-12-18T09:55:24;20.17;;;13.18;;
63664;SDS011;49820;33.966;73.390;2022-12-18T09:58:14;21.80;;;14.05;;
63664;SDS011;49820;33.966;73.390;2022-12-18T10:00:45;22.42;;;13.85;;
63664;SDS011;49820;33.966;73.390;2022-12-18T10:03:14;18.90;;;13.18;;
63664;SDS011;49820;33.966;73.390;2022-12-18T10:11:40;19.48;;;12.48;;
63664;SDS011;49820;33.966;73.390;2022-12-18T10:14:26;18.60;;;12.98;;
63664;SDS011;49820;33.966;73.390;2022-12-18T10:19:56;16.58;;;12.15;;
63664;SDS011;49820;33.966;73.390;2022-12-18T10:28:12;20.20;;;12.88;;
63664;SDS011;49820;33.966;73.390;2022-12-18T10:30:43;17.52;;;13.23;;
63664;SDS011;49820;33.966;73.390;2022-12-18T10:33:23;20.05;;;13.27;;
63664;SDS011;49820;33.966;73.390;2022-12-18T10:35:56;18.38;;;13.55;;
63664;SDS011;49820;33.966;73.390;2022-12-18T10:41:04;20.93;;;13.60;;
63664;SDS011;49820;33.966;73.390;2022-12-18T10:43:34;20.97;;;15.00;;
63664;SDS011;49820;33.966;73.390;2022-12-18T10:48:47;25.10;;;16.35;;
63664;SDS011;49820;33.966;73.390;2022-12-18T10:54:17;22.67;;;16.02;;
63664;SDS011;49820;33.966;73.390;2022-12-18T10:56:49;27.27;;;16.25;;
63664;SDS011;49820;33.966;73.390;2022-12-18T10:59:19;28.92;;;17.77;;
63664;SDS011;49820;33.966;73.390;2022-12-18T11:04:25;25.87;;;16.40;;
63664;SDS011;49820;33.966;73.390;2022-12-18T11:07:07;25.75;;;17.20;;
63664;SDS011;49820;33.966;73.390;2022-12-18T11:09:39;27.70;;;17.65;;
63664;SDS011;49820;33.966;73.390;2022-12-18T11:14:52;27.50;;;16.77;;
63664;SDS011;49820;33.966;73.390;2022-12-18T11:20:02;27.45;;;17.17;;
63664;SDS011;49820;33.966;73.390;2022-12-18T11:22:57;28.30;;;17.17;;
63664;SDS011;49820;33.966;73.390;2022-12-18T11:25:32;27.60;;;17.05;;
63664;SDS011;49820;33.966;73.390;2022-12-18T11:28:24;27.85;;;16.70;;
63664;SDS011;49820;33.966;73.390;2022-12-18T11:36:59;25.40;;;16.90;;
63664;SDS011;49820;33.966;73.390;2022-12-18T11:39:34;32.05;;;19.58;;
63664;SDS011;49820;33.966;73.390;2022-12-18T11:42:20;26.80;;;17.35;;
63664;SDS011;49820;33.966;73.390;2022-12-18T11:50:51;26.98;;;16.25;;
63664;SDS011;49820;33.966;73.390;2022-12-18T11:53:27;27.30;;;15.80;;
63664;SDS011;49820;33.966;73.390;2022-12-18T11:56:05;27.42;;;14.95;;
63664;SDS011;49820;33.966;73.390;2022-12-18T12:04:45;26.83;;;15.38;;
63664;SDS011;49820;33.966;73.390;2022-12-18T12:17:15;25.77;;;16.10;;
63664;SDS011;49820;33.966;73.390;2022-12-18T12:20:10;26.65;;;16.58;;
63664;SDS011;49820;33.966;73.390;2022-12-18T12:22:50;34.95;;;18.23;;
63664;SDS011;49820;33.966;73.390;2022-12-18T12:28:19;30.13;;;18.23;;
63664;SDS011;49820;33.966;73.390;2022-12-18T12:31:25;32.38;;;22.60;;
63664;SDS011;49820;33.966;73.390;2022-12-18T12:37:12;26.73;;;16.57;;
63664;SDS011;49820;33.966;73.390;2022-12-18T12:39:51;39.10;;;25.38;;
63664;SDS011;49820;33.966;73.390;2022-12-18T12:42:38;50.07;;;30.20;;
63664;SDS011;49820;33.966;73.390;2022-12-18T12:45:49;62.35;;;36.70;;
63664;SDS011;49820;33.966;73.390;2022-12-18T12:50:51;46.30;;;28.05;;
63664;SDS011;49820;33.966;73.390;2022-12-18T12:53:25;44.42;;;28.23;;
63664;SDS011;49820;33.966;73.390;2022-12-18T12:55:58;39.38;;;22.65;;
63664;SDS011;49820;33.966;73.390;2022-12-18T12:59:11;46.20;;;28.83;;
63664;SDS011;49820;33.966;73.390;2022-12-18T13:12:57;29.88;;;18.73;;
63664;SDS011;49820;33.966;73.390;2022-12-18T13:18:16;33.00;;;18.90;;
63664;SDS011;49820;33.966;73.390;2022-12-18T13:20:51;44.28;;;26.90;;
63664;SDS011;49820;33.966;73.390;2022-12-18T13:23:48;39.80;;;22.85;;
63664;SDS011;49820;33.966;73.390;2022-12-18T13:28:55;27.88;;;17.63;;
63664;SDS011;49820;33.966;73.390;2022-12-18T13:34:27;30.17;;;16.58;;
63664;SDS011;49820;33.966;73.390;2022-12-18T13:40:24;30.50;;;17.70;;
63664;SDS011;49820;33.966;73.390;2022-12-18T13:46:47;28.95;;;18.58;;
63664;SDS011;49820;33.966;73.390;2022-12-18T13:51:54;37.67;;;22.55;;
63664;SDS011;49820;33.966;73.390;2022-12-18T13:56:58;38.08;;;22.80;;
63664;SDS011;49820;33.966;73.390;2022-12-18T13:59:35;42.90;;;24.23;;
63664;SDS011;49820;33.966;73.390;2022-12-18T14:02:11;37.88;;;22.67;;
63664;SDS011;49820;33.966;73.390;2022-12-18T14:04:46;39.40;;;23.42;;
63664;SDS011;49820;33.966;73.390;2022-12-18T14:07:24;36.25;;;22.42;;
63664;SDS011;49820;33.966;73.390;2022-12-18T14:10:11;37.35;;;23.15;;
63664;SDS011;49820;33.966;73.390;2022-12-18T14:13:08;35.50;;;21.20;;
63664;SDS011;49820;33.966;73.390;2022-12-18T14:15:41;38.53;;;21.98;;
63664;SDS011;49820;33.966;73.390;2022-12-18T14:18:24;34.65;;;20.92;;
63664;SDS011;49820;33.966;73.390;2022-12-18T14:20:57;35.80;;;21.35;;
63664;SDS011;49820;33.966;73.390;2022-12-18T14:28:57;38.17;;;21.42;;
63664;SDS011;49820;33.966;73.390;2022-12-18T14:31:32;33.88;;;20.05;;
63664;SDS011;49820;33.966;73.390;2022-12-18T14:34:01;33.83;;;19.92;;
63664;SDS011;49820;33.966;73.390;2022-12-18T14:36:30;30.70;;;17.98;;
63664;SDS011;49820;33.966;73.390;2022-12-18T14:38:59;28.23;;;16.73;;
63664;SDS011;49820;33.966;73.390;2022-12-18T14:41:28;25.93;;;15.73;;
63664;SDS011;49820;33.966;73.390;2022-12-18T14:44:04;27.15;;;15.65;;
63664;SDS011;49820;33.966;73.390;2022-12-18T14:46:35;25.02;;;15.25;;
63664;SDS011;49820;33.966;73.390;2022-12-18T14:52:04;61.08;;;36.45;;
63664;SDS011;49820;33.966;73.390;2022-12-18T14:54:45;67.60;;;40.67;;
63664;SDS011;49820;33.966;73.390;2022-12-18T15:00:05;34.40;;;21.38;;
63664;SDS011;49820;33.966;73.390;2022-12-18T15:02:40;30.90;;;17.15;;
63664;SDS011;49820;33.966;73.390;2022-12-18T15:05:16;21.30;;;13.38;;
63664;SDS011;49820;33.966;73.390;2022-12-18T15:07:49;20.33;;;11.90;;
63664;SDS011;49820;33.966;73.390;2022-12-18T15:10:21;16.25;;;10.68;;
63664;SDS011;49820;33.966;73.390;2022-12-18T15:20:40;21.02;;;12.55;;
63664;SDS011;49820;33.966;73.390;2022-12-18T15:23:24;19.92;;;11.93;;
63664;SDS011;49820;33.966;73.390;2022-12-18T15:26:03;19.13;;;11.55;;
63664;SDS011;49820;33.966;73.390;2022-12-18T15:31:32;22.98;;;12.30;;
63664;SDS011;49820;33.966;73.390;2022-12-18T15:34:13;23.70;;;13.88;;
63664;SDS011;49820;33.966;73.390;2022-12-18T15:36:49;27.08;;;16.02;;
63664;SDS011;49820;33.966;73.390;2022-12-18T15:39:19;31.17;;;17.02;;
63664;SDS011;49820;33.966;73.390;2022-12-18T15:41:48;32.08;;;18.98;;
63664;SDS011;49820;33.966;73.390;2022-12-18T15:44:36;31.83;;;19.30;;
63664;SDS011;49820;33.966;73.390;2022-12-18T15:47:10;33.95;;;20.63;;
63664;SDS011;49820;33.966;73.390;2022-12-18T15:49:41;33.53;;;20.13;;
63664;SDS011;49820;33.966;73.390;2022-12-18T15:52:11;35.35;;;20.55;;
63664;SDS011;49820;33.966;73.390;2022-12-18T15:54:42;32.03;;;20.35;;
63664;SDS011;49820;33.966;73.390;2022-12-18T15:57:29;33.38;;;20.42;;
63664;SDS011;49820;33.966;73.390;2022-12-18T15:59:58;30.23;;;19.13;;
63664;SDS011;49820;33.966;73.390;2022-12-18T16:02:30;34.08;;;19.95;;
63664;SDS011;49820;33.966;73.390;2022-12-18T16:04:59;29.43;;;17.67;;
63664;SDS011;49820;33.966;73.390;2022-12-18T16:07:28;29.30;;;18.27;;
63664;SDS011;49820;33.966;73.390;2022-12-18T16:09:57;31.58;;;18.50;;
63664;SDS011;49820;33.966;73.390;2022-12-18T16:12:29;32.67;;;20.15;;
63664;SDS011;49820;33.966;73.390;2022-12-18T16:14:59;32.92;;;19.33;;
63664;SDS011;49820;33.966;73.390;2022-12-18T16:17:28;33.17;;;20.17;;
63664;SDS011;49820;33.966;73.390;2022-12-18T16:19:58;34.70;;;19.77;;
63664;SDS011;49820;33.966;73.390;2022-12-18T16:22:28;33.38;;;19.33;;
63664;SDS011;49820;33.966;73.390;2022-12-18T16:24:57;27.45;;;17.33;;
63664;SDS011;49820;33.966;73.390;2022-12-18T16:27:26;34.97;;;19.80;;
63664;SDS011;49820;33.966;73.390;2022-12-18T16:29:55;31.35;;;18.85;;
63664;SDS011;49820;33.966;73.390;2022-12-18T16:32:24;31.38;;;17.83;;
63664;SDS011;49820;33.966;73.390;2022-12-18T16:34:53;29.43;;;17.67;;
63664;SDS011;49820;33.966;73.390;2022-12-18T16:37:29;31.13;;;18.25;;
63664;SDS011;49820;33.966;73.390;2022-12-18T16:39:58;32.53;;;19.37;;
63664;SDS011;49820;33.966;73.390;2022-12-18T16:42:27;36.42;;;21.02;;
63664;SDS011;49820;33.966;73.390;2022-12-18T16:44:55;37.35;;;21.25;;
63664;SDS011;49820;33.966;73.390;2022-12-18T16:47:25;39.17;;;21.25;;
63664;SDS011;49820;33.966;73.390;2022-12-18T16:49:53;37.05;;;21.38;;
63664;SDS011;49820;33.966;73.390;2022-12-18T16:52:23;33.78;;;20.92;;
63664;SDS011;49820;33.966;73.390;2022-12-18T16:54:55;34.40;;;20.77;;
63664;SDS011;49820;33.966;73.390;2022-12-18T16:57:24;34.72;;;20.70;;
63664;SDS011;49820;33.966;73.390;2022-12-18T16:59:53;35.20;;;21.27;;
63664;SDS011;49820;33.966;73.390;2022-12-18T17:02:31;36.83;;;20.53;;
63664;SDS011;49820;33.966;73.390;2022-12-18T17:05:00;33.53;;;20.58;;
63664;SDS011;49820;33.966;73.390;2022-12-18T17:07:29;33.20;;;18.85;;
63664;SDS011;49820;33.966;73.390;2022-12-18T17:10:00;29.85;;;18.73;;
63664;SDS011;49820;33.966;73.390;2022-12-18T17:12:30;33.10;;;17.67;;
63664;SDS011;49820;33.966;73.390;2022-12-18T17:14:59;29.83;;;18.48;;
63664;SDS011;49820;33.966;73.390;2022-12-18T17:17:27;30.65;;;17.35;;
63664;SDS011;49820;33.966;73.390;2022-12-18T17:19:57;25.88;;;15.93;;
63664;SDS011;49820;33.966;73.390;2022-12-18T17:22:27;23.63;;;13.77;;
63664;SDS011;49820;33.966;73.390;2022-12-18T17:24:57;21.58;;;12.35;;